Milwaukee, Wisconsin
Traffic Map
Current Weather Conditions
Milwaukee, Wisconsin
Overcast
Overcast

Feels Like: 7°
Wind Chill: Ceiling: 1400
Heat Index: Visibility: 10mi
Dew Point: Wind: 6mph
Humidity: 83% Direction: 30° (NNE)
Pressure: 30.24in Gusts: 0mph
Raw Report DataKMKE 052352Z 03005KT 10SM BKN014 OVC050 08/06 A3024 RMK AO2 SLP244 60005 T00830056 10089 20072 56011
Traffic Incident Summary
Active as of:
Severity:
Category:
InformationThere was an issue retrieving the traffic information for this location. Please try a different location or try again shortly.
Advertisements
Track Severe Weather on mobile